createdAt,value
2018-11-25T00:00:22.922Z,262.73
2018-11-25T00:02:51.481Z,287.40
2018-11-25T00:05:20.133Z,287.17
2018-11-25T00:07:48.847Z,344.77
2018-11-25T00:10:17.491Z,420.23
2018-11-25T00:12:46.252Z,455.00
2018-11-25T00:15:15.094Z,337.57
2018-11-25T00:17:44.560Z,478.37
2018-11-25T00:20:13.630Z,470.13
2018-11-25T00:22:42.581Z,492.33
2018-11-25T00:25:12.146Z,525.17
2018-11-25T00:27:40.685Z,401.00
2018-11-25T00:30:14.351Z,505.77
2018-11-25T00:32:42.995Z,605.13
2018-11-25T00:35:12.643Z,571.70
2018-11-25T00:37:47.915Z,555.80
2018-11-25T00:40:12.064Z,535.23
2018-11-25T00:42:40.750Z,571.63
2018-11-25T00:45:17.053Z,722.20
2018-11-25T00:47:45.720Z,704.67
2018-11-25T00:50:14.905Z,753.70
2018-11-25T00:52:43.581Z,347.17
2018-11-25T00:55:13.323Z,275.83
2018-11-25T00:57:42.051Z,707.97
2018-11-25T01:00:13.831Z,596.37
2018-11-25T01:02:42.395Z,529.23
2018-11-25T01:05:11.315Z,322.73
2018-11-25T01:07:39.935Z,378.03
2018-11-25T01:10:11.703Z,445.60
2018-11-25T01:12:40.258Z,756.13
2018-11-25T01:15:10.798Z,593.47
2018-11-25T01:17:39.378Z,367.90
2018-11-25T01:20:11.458Z,491.90
2018-11-25T01:22:40.008Z,756.63
2018-11-25T01:25:09.603Z,306.50
2018-11-25T01:27:38.126Z,714.00
2018-11-25T01:30:10.282Z,608.30
2018-11-25T01:32:38.963Z,263.90
2018-11-25T01:35:09.727Z,585.23
2018-11-25T01:37:38.342Z,596.43
2018-11-25T01:40:14.936Z,647.13
2018-11-25T01:42:43.456Z,260.60
2018-11-25T01:45:15.854Z,261.53
2018-11-25T01:47:44.456Z,472.23
2018-11-25T01:50:14.418Z,417.77
2018-11-25T01:52:42.964Z,309.83
2018-11-25T01:55:12.737Z,342.03
2018-11-25T01:57:41.434Z,409.63
2018-11-25T02:00:13.202Z,265.80
2018-11-25T02:02:41.822Z,496.87
2018-11-25T02:05:10.511Z,297.87
2018-11-25T02:07:39.111Z,396.23
2018-11-25T02:10:18.088Z,247.57
2018-11-25T02:12:46.716Z,330.17
2018-11-25T02:15:15.985Z,391.50
2018-11-25T02:17:44.591Z,369.10
2018-11-25T02:20:15.342Z,222.90
2018-11-25T02:22:43.901Z,164.13
2018-11-25T02:25:12.441Z,161.97
2018-11-25T02:27:40.984Z,330.50
2018-11-25T02:30:11.178Z,228.30
2018-11-25T02:32:39.673Z,201.17
2018-11-25T02:35:09.555Z,122.07
2018-11-25T02:37:38.246Z,172.90
2018-11-25T02:40:21.431Z,148.93
2018-11-25T02:42:49.988Z,134.10
2018-11-25T02:45:19.138Z,233.00
2018-11-25T02:47:47.705Z,193.60
2018-11-25T02:50:30.761Z,178.80
2018-11-25T02:53:13.968Z,123.50
2018-11-25T02:55:42.801Z,226.77
2018-11-25T02:58:11.427Z,156.37
2018-11-25T03:00:40.002Z,208.50
2018-11-25T03:03:08.697Z,142.10
2018-11-25T03:05:37.427Z,169.47
2018-11-25T03:08:06.327Z,133.50
2018-11-25T03:10:35.131Z,115.60
2018-11-25T03:13:03.733Z,147.47
2018-11-25T03:15:32.366Z,176.20
2018-11-25T03:18:00.961Z,177.57
2018-11-25T03:20:29.681Z,126.37
2018-11-25T03:22:58.227Z,121.77
2018-11-25T03:25:26.939Z,132.50
2018-11-25T03:27:55.546Z,207.00
2018-11-25T03:30:24.107Z,255.90
2018-11-25T03:32:53.533Z,126.93
2018-11-25T03:35:22.169Z,281.97
2018-11-25T03:37:50.806Z,123.83
2018-11-25T03:40:19.699Z,146.83
2018-11-25T03:42:49.342Z,150.80
2018-11-25T03:45:20.961Z,152.87
2018-11-25T03:47:49.614Z,140.50
2018-11-25T03:50:18.309Z,130.97
2018-11-25T03:52:47.042Z,308.70
2018-11-25T03:55:16.435Z,278.90
2018-11-25T03:57:45.216Z,369.27
2018-11-25T04:00:21.642Z,193.17
2018-11-25T04:02:51.357Z,379.53
2018-11-25T04:05:20.084Z,601.90
2018-11-25T04:07:48.666Z,604.47
2018-11-25T04:10:18.089Z,583.73
2018-11-25T04:12:46.650Z,269.07
2018-11-25T04:15:17.182Z,448.37
2018-11-25T04:17:45.902Z,693.93
2018-11-25T04:20:15.474Z,228.80
2018-11-25T04:22:44.063Z,478.93
2018-11-25T04:25:13.138Z,564.47
2018-11-25T04:27:41.748Z,360.17
2018-11-25T04:30:14.160Z,155.83
2018-11-25T04:32:43.050Z,211.33
2018-11-25T04:35:12.428Z,249.40
2018-11-25T04:37:41.121Z,332.53
2018-11-25T04:40:10.757Z,377.63
2018-11-25T04:42:39.345Z,260.27
2018-11-25T04:45:11.883Z,222.23
2018-11-25T04:47:40.539Z,181.70
2018-11-25T04:50:12.487Z,140.77
2018-11-25T04:52:41.249Z,260.80
2018-11-25T04:55:10.289Z,338.70
2018-11-25T04:57:38.871Z,266.73
2018-11-25T05:00:11.789Z,332.50
2018-11-25T05:02:41.014Z,183.93
2018-11-25T05:05:10.861Z,129.40
2018-11-25T05:07:39.902Z,427.03
2018-11-25T05:10:12.925Z,146.90
2018-11-25T05:12:41.566Z,126.33
2018-11-25T05:15:14.266Z,141.57
2018-11-25T05:17:42.900Z,121.67
2018-11-25T05:20:12.086Z,127.77
2018-11-25T05:22:40.681Z,215.40
2018-11-25T05:25:10.875Z,155.10
2018-11-25T05:27:39.442Z,167.87
2018-11-25T05:30:11.443Z,107.97
2018-11-25T05:32:40.043Z,143.70
2018-11-25T05:35:10.772Z,116.43
2018-11-25T05:37:39.398Z,138.47
2018-11-25T05:40:12.312Z,140.07
2018-11-25T05:42:40.952Z,159.47
2018-11-25T05:45:24.092Z,123.70
2018-11-25T05:47:52.707Z,286.43
2018-11-25T05:50:21.302Z,145.87
2018-11-25T05:52:49.910Z,128.27
2018-11-25T05:55:18.672Z,157.47
2018-11-25T05:57:47.302Z,198.10
2018-11-25T06:00:18.183Z,202.47
2018-11-25T06:02:46.802Z,215.67
2018-11-25T06:05:15.476Z,204.70
2018-11-25T06:07:44.168Z,173.77
2018-11-25T06:10:13.580Z,194.20
2018-11-25T06:12:42.361Z,149.50
2018-11-25T06:15:12.796Z,190.10
2018-11-25T06:17:41.396Z,280.73
2018-11-25T06:20:17.128Z,156.17
2018-11-25T06:22:45.926Z,191.93
2018-11-25T06:25:17.341Z,193.97
2018-11-25T06:27:45.941Z,126.57
2018-11-25T06:30:17.219Z,116.23
2018-11-25T06:32:45.826Z,147.30
2018-11-25T06:35:15.181Z,123.10
2018-11-25T06:37:43.845Z,148.17
2018-11-25T06:40:14.355Z,154.10
2018-11-25T06:42:42.950Z,125.20
2018-11-25T06:45:24.447Z,239.43
2018-11-25T06:47:53.666Z,145.00
2018-11-25T06:50:22.383Z,128.73
2018-11-25T06:52:50.993Z,125.60
2018-11-25T06:55:19.829Z,123.43
2018-11-25T06:57:48.412Z,141.00
2018-11-25T07:00:19.787Z,115.93
2018-11-25T07:02:48.389Z,173.27
2018-11-25T07:05:17.061Z,163.63
2018-11-25T07:07:45.717Z,211.10
2018-11-25T07:10:16.384Z,134.10
2018-11-25T07:12:45.111Z,168.63
2018-11-25T07:15:15.723Z,137.33
2018-11-25T07:17:44.426Z,217.17
2018-11-25T07:20:14.792Z,174.17
2018-11-25T07:22:43.464Z,122.00
2018-11-25T07:25:14.121Z,138.40
2018-11-25T07:27:42.807Z,134.00
2018-11-25T07:30:16.631Z,134.90
2018-11-25T07:32:45.273Z,152.63
2018-11-25T07:35:13.955Z,158.43
2018-11-25T07:37:42.656Z,153.17
2018-11-25T07:40:17.354Z,194.30
2018-11-25T07:42:45.997Z,218.00
2018-11-25T07:45:17.718Z,141.97
2018-11-25T07:47:46.424Z,144.37
2018-11-25T07:50:15.101Z,138.60
2018-11-25T07:52:44.715Z,208.77
2018-11-25T07:55:17.244Z,155.70
2018-11-25T07:57:46.376Z,165.60
2018-11-25T08:00:16.860Z,145.10
2018-11-25T08:02:45.483Z,184.97
2018-11-25T08:05:15.253Z,208.37
2018-11-25T08:07:43.970Z,194.37
2018-11-25T08:10:13.544Z,210.83
2018-11-25T08:12:42.284Z,175.77
2018-11-25T08:15:14.605Z,232.70
2018-11-25T08:17:43.250Z,233.30
2018-11-25T08:20:13.721Z,193.13
2018-11-25T08:22:42.337Z,172.80
2018-11-25T08:25:12.040Z,185.97
2018-11-25T08:27:40.713Z,192.47
2018-11-25T08:30:18.756Z,187.73
2018-11-25T08:32:47.388Z,128.87
2018-11-25T08:35:16.647Z,149.70
2018-11-25T08:37:45.370Z,111.27
2018-11-25T08:40:14.948Z,93.33
2018-11-25T08:42:43.550Z,98.57
2018-11-25T08:45:13.143Z,107.23
2018-11-25T08:47:41.828Z,98.00
2018-11-25T08:50:15.300Z,113.27
2018-11-25T08:52:44.868Z,89.70
2018-11-25T08:55:17.275Z,106.53
2018-11-25T08:57:46.053Z,97.93
2018-11-25T09:00:16.798Z,109.17
2018-11-25T09:02:45.537Z,94.10
2018-11-25T09:05:14.945Z,91.27
2018-11-25T09:07:43.689Z,100.67
2018-11-25T09:10:14.479Z,107.43
2018-11-25T09:12:43.496Z,91.27
2018-11-25T09:15:14.498Z,88.27
2018-11-25T09:17:43.211Z,91.70
2018-11-25T09:20:19.769Z,86.60
2018-11-25T09:22:48.572Z,80.67
2018-11-25T09:25:24.081Z,80.70
2018-11-25T09:27:53.249Z,70.90
2018-11-25T09:30:23.077Z,82.77
2018-11-25T09:32:51.730Z,66.60
2018-11-25T09:35:20.877Z,57.27
2018-11-25T09:37:49.600Z,53.47
2018-11-25T09:40:19.312Z,58.47
2018-11-25T09:42:47.991Z,63.90
2018-11-25T09:45:17.471Z,62.90
2018-11-25T09:47:46.148Z,62.80
2018-11-25T09:50:16.556Z,64.43
2018-11-25T09:52:45.193Z,66.43
2018-11-25T09:55:17.808Z,61.97
2018-11-25T09:57:47.620Z,65.97
2018-11-25T10:00:27.715Z,69.10
2018-11-25T10:02:56.397Z,72.13
2018-11-25T10:05:25.116Z,79.23
2018-11-25T10:07:53.819Z,79.67
2018-11-25T10:10:23.862Z,81.07
2018-11-25T10:12:53.115Z,83.50
2018-11-25T10:15:23.008Z,86.33
2018-11-25T10:17:59.009Z,73.97
2018-11-25T10:20:22.900Z,69.93
2018-11-25T10:22:51.567Z,59.03
2018-11-25T10:25:20.198Z,58.33
2018-11-25T10:27:49.055Z,59.40
2018-11-25T10:30:19.566Z,63.93
2018-11-25T10:32:49.547Z,58.83
2018-11-25T10:35:18.248Z,72.03
2018-11-25T10:37:46.922Z,71.27
2018-11-25T10:40:17.382Z,77.43
2018-11-25T10:42:46.050Z,72.90
2018-11-25T10:45:18.603Z,71.80
2018-11-25T10:47:47.476Z,77.90
2018-11-25T10:50:17.865Z,79.50
2018-11-25T10:52:46.741Z,88.40
2018-11-25T10:55:16.420Z,90.33
2018-11-25T10:57:46.072Z,82.43
2018-11-25T11:00:30.834Z,88.23
2018-11-25T11:03:04.685Z,73.63
2018-11-25T11:05:38.470Z,77.87
2018-11-25T11:08:07.803Z,87.83
2018-11-25T11:10:36.527Z,77.50
2018-11-25T11:13:06.083Z,66.63
2018-11-25T11:15:34.912Z,68.13
2018-11-25T11:18:03.565Z,65.30
2018-11-25T11:20:34.632Z,62.93
2018-11-25T11:23:03.375Z,59.00
2018-11-25T11:25:32.002Z,56.57
2018-11-25T11:28:00.678Z,61.93
2018-11-25T11:30:29.444Z,63.03
2018-11-25T11:32:58.120Z,55.80
2018-11-25T11:35:26.743Z,61.50
2018-11-25T11:37:55.422Z,53.80
2018-11-25T11:40:24.064Z,57.63
2018-11-25T11:42:52.777Z,56.73
2018-11-25T11:45:21.441Z,55.50
2018-11-25T11:47:50.126Z,56.43
2018-11-25T11:50:20.810Z,58.57
2018-11-25T11:52:49.512Z,54.27
2018-11-25T11:55:18.698Z,55.47
2018-11-25T11:57:48.060Z,57.10
2018-11-25T12:00:21.003Z,54.93
2018-11-25T12:02:49.833Z,54.73
2018-11-25T12:05:18.557Z,55.73
2018-11-25T12:07:47.373Z,51.63
2018-11-25T12:10:16.671Z,50.30
2018-11-25T12:12:45.387Z,49.80
2018-11-25T12:15:16.432Z,55.60
2018-11-25T12:17:45.085Z,54.67
2018-11-25T12:20:13.776Z,55.47
2018-11-25T12:22:42.537Z,54.33
2018-11-25T12:25:12.872Z,51.80
2018-11-25T12:27:41.535Z,48.70
2018-11-25T12:30:12.231Z,52.20
2018-11-25T12:32:41.116Z,51.97
2018-11-25T12:35:10.703Z,48.93
2018-11-25T12:37:39.313Z,46.00
2018-11-25T12:40:13.346Z,47.17
2018-11-25T12:42:42.829Z,37.30
2018-11-25T12:45:12.830Z,40.90
2018-11-25T12:47:41.524Z,40.83
2018-11-25T12:50:11.518Z,40.27
2018-11-25T12:52:40.269Z,40.37
2018-11-25T12:55:10.590Z,39.33
2018-11-25T12:57:39.365Z,42.03
2018-11-25T13:00:44.068Z,42.03
2018-11-25T13:03:13.270Z,40.03
2018-11-25T13:05:46.431Z,39.57
2018-11-25T13:08:11.678Z,41.60
2018-11-25T13:10:40.406Z,42.67
2018-11-25T13:13:11.399Z,40.03
2018-11-25T13:15:40.184Z,38.80
2018-11-25T13:18:09.660Z,35.83
2018-11-25T13:20:38.509Z,38.93
2018-11-25T13:23:07.444Z,42.83
2018-11-25T13:25:36.100Z,38.53
2018-11-25T13:28:04.701Z,40.70
2018-11-25T13:30:33.371Z,39.87
2018-11-25T13:33:02.926Z,37.00
2018-11-25T13:35:33.134Z,38.10
2018-11-25T13:38:01.810Z,34.73
2018-11-25T13:40:30.395Z,37.20
2018-11-25T13:42:59.089Z,35.67
2018-11-25T13:45:27.803Z,38.10
2018-11-25T13:47:56.451Z,39.27
2018-11-25T13:50:25.197Z,36.30
2018-11-25T13:52:53.865Z,37.87
2018-11-25T13:55:25.467Z,38.27
2018-11-25T13:57:54.170Z,40.20
2018-11-25T14:00:34.717Z,39.50
2018-11-25T14:03:03.705Z,34.73
2018-11-25T14:05:32.456Z,33.33
2018-11-25T14:08:01.063Z,37.27
2018-11-25T14:10:31.471Z,40.07
2018-11-25T14:13:00.061Z,35.70
2018-11-25T14:15:29.731Z,37.40
2018-11-25T14:17:57.407Z,40.77
2018-11-25T14:20:26.065Z,32.23
2018-11-25T14:22:54.685Z,29.97
2018-11-25T14:25:24.051Z,30.97
2018-11-25T14:27:54.716Z,31.57
2018-11-25T14:30:25.111Z,27.97
2018-11-25T14:32:53.716Z,29.67
2018-11-25T14:35:22.330Z,31.87
2018-11-25T14:37:50.973Z,32.80
2018-11-25T14:40:20.224Z,31.17
2018-11-25T14:42:48.968Z,29.70
2018-11-25T14:45:18.219Z,31.33
2018-11-25T14:47:46.912Z,30.73
2018-11-25T14:50:16.858Z,34.27
2018-11-25T14:52:46.768Z,29.27
2018-11-25T14:55:15.928Z,33.40
2018-11-25T14:57:44.622Z,31.50
2018-11-25T15:00:17.064Z,32.63
2018-11-25T15:02:52.835Z,31.37
2018-11-25T15:05:26.324Z,40.10
2018-11-25T15:07:54.912Z,38.60
2018-11-25T15:10:23.660Z,36.23
2018-11-25T15:12:52.270Z,35.90
2018-11-25T15:15:20.919Z,36.73
2018-11-25T15:17:49.492Z,36.87
2018-11-25T15:20:18.230Z,36.77
2018-11-25T15:22:49.999Z,37.13
2018-11-25T15:25:21.247Z,39.67
2018-11-25T15:27:49.833Z,38.00
2018-11-25T15:30:18.468Z,39.17
2018-11-25T15:32:47.085Z,40.97
2018-11-25T15:35:15.739Z,39.87
2018-11-25T15:37:45.745Z,40.43
2018-11-25T15:40:21.176Z,41.63
2018-11-25T15:42:50.033Z,39.47
2018-11-25T15:45:18.627Z,44.53
2018-11-25T15:47:48.988Z,41.33
2018-11-25T15:50:20.895Z,34.87
2018-11-25T15:52:49.569Z,32.67
2018-11-25T15:55:18.252Z,39.57
2018-11-25T15:57:46.900Z,41.27
2018-11-25T16:00:19.395Z,37.67
2018-11-25T16:02:48.054Z,32.63
2018-11-25T16:05:18.037Z,34.37
2018-11-25T16:07:46.555Z,32.10
2018-11-25T16:10:15.173Z,35.40
2018-11-25T16:12:44.869Z,32.77
2018-11-25T16:15:15.662Z,35.47
2018-11-25T16:17:44.282Z,32.87
2018-11-25T16:20:18.876Z,31.93
2018-11-25T16:22:48.690Z,31.77
2018-11-25T16:25:23.065Z,29.03
2018-11-25T16:27:53.821Z,28.47
2018-11-25T16:30:22.429Z,29.27
2018-11-25T16:32:51.187Z,31.60
2018-11-25T16:35:19.783Z,29.37
2018-11-25T16:37:48.318Z,34.87
2018-11-25T16:40:17.388Z,31.73
2018-11-25T16:42:45.992Z,32.03
2018-11-25T16:45:16.451Z,29.63
2018-11-25T16:47:44.995Z,27.63
2018-11-25T16:50:24.769Z,29.43
2018-11-25T16:52:45.266Z,27.23
2018-11-25T16:55:14.918Z,27.37
2018-11-25T16:57:44.239Z,27.30
2018-11-25T17:00:15.071Z,27.60
2018-11-25T17:02:43.722Z,27.40
2018-11-25T17:05:14.108Z,26.20
2018-11-25T17:07:43.204Z,25.83
2018-11-25T17:10:12.437Z,25.77
2018-11-25T17:12:41.058Z,24.73
2018-11-25T17:15:20.092Z,24.93
2018-11-25T17:17:48.688Z,27.13
2018-11-25T17:20:17.318Z,25.87
2018-11-25T17:22:46.077Z,21.97
2018-11-25T17:25:14.883Z,27.33
2018-11-25T17:27:43.765Z,26.33
2018-11-25T17:30:19.016Z,25.80
2018-11-25T17:32:48.218Z,23.83
2018-11-25T17:35:20.062Z,30.10
2018-11-25T17:37:48.714Z,29.03
2018-11-25T17:40:17.255Z,30.67
2018-11-25T17:42:45.912Z,32.90
2018-11-25T17:45:14.615Z,33.33
2018-11-25T17:47:43.335Z,30.47
2018-11-25T17:50:15.267Z,34.43
2018-11-25T17:52:43.907Z,28.57
2018-11-25T17:55:13.438Z,31.00
2018-11-25T17:57:42.428Z,34.30
2018-11-25T18:00:17.705Z,31.77
2018-11-25T18:02:46.365Z,29.23
2018-11-25T18:05:14.968Z,28.10
2018-11-25T18:07:43.634Z,32.03
2018-11-25T18:10:13.168Z,28.47
2018-11-25T18:12:41.931Z,32.70
2018-11-25T18:15:16.204Z,31.97
2018-11-25T18:17:52.205Z,30.43
2018-11-25T18:20:20.792Z,32.20
2018-11-25T18:22:49.964Z,32.33
2018-11-25T18:25:18.793Z,33.53
2018-11-25T18:27:47.429Z,33.17
2018-11-25T18:30:17.187Z,34.60
2018-11-25T18:32:46.168Z,32.93
2018-11-25T18:35:14.844Z,32.87
2018-11-25T18:37:43.482Z,34.63
2018-11-25T18:40:13.347Z,35.63
2018-11-25T18:42:42.654Z,30.07
2018-11-25T18:45:13.510Z,33.20
2018-11-25T18:47:43.106Z,33.40
2018-11-25T18:50:13.021Z,35.20
2018-11-25T18:52:42.158Z,31.93
2018-11-25T18:55:09.562Z,36.10
2018-11-25T18:57:38.145Z,35.50
2018-11-25T19:00:13.846Z,35.17
2018-11-25T19:02:44.240Z,35.63
2018-11-25T19:05:12.852Z,35.20
2018-11-25T19:07:41.687Z,33.47
2018-11-25T19:10:14.679Z,35.03
2018-11-25T19:12:44.378Z,36.93
2018-11-25T19:15:13.327Z,37.73
2018-11-25T19:17:41.960Z,38.17
2018-11-25T19:20:18.758Z,37.97
2018-11-25T19:22:47.372Z,38.30
2018-11-25T19:25:16.883Z,40.57
2018-11-25T19:27:46.442Z,41.90
2018-11-25T19:30:15.642Z,41.90
2018-11-25T19:32:46.417Z,42.07
2018-11-25T19:35:17.046Z,38.50
2018-11-25T19:37:46.602Z,39.37
2018-11-25T19:40:16.404Z,38.93
2018-11-25T19:42:45.181Z,38.80
2018-11-25T19:45:16.072Z,34.80
2018-11-25T19:47:44.645Z,38.30
2018-11-25T19:50:17.938Z,34.93
2018-11-25T19:52:46.532Z,35.23
2018-11-25T19:55:15.068Z,35.73
2018-11-25T19:57:43.697Z,35.27
2018-11-25T20:00:15.435Z,33.53
2018-11-25T20:02:44.065Z,34.13
2018-11-25T20:05:13.519Z,33.10
2018-11-25T20:07:42.777Z,31.40
2018-11-25T20:10:12.464Z,33.37
2018-11-25T20:12:41.681Z,31.60
2018-11-25T20:15:12.289Z,27.90
2018-11-25T20:17:40.999Z,31.10
2018-11-25T20:20:13.810Z,29.13
2018-11-25T20:22:42.387Z,28.97
2018-11-25T20:25:11.848Z,31.80
2018-11-25T20:27:43.535Z,28.33
2018-11-25T20:30:15.971Z,30.27
2018-11-25T20:32:50.009Z,30.97
2018-11-25T20:35:18.672Z,34.00
2018-11-25T20:37:52.697Z,31.17
2018-11-25T20:40:21.207Z,33.03
2018-11-25T20:42:50.030Z,36.63
2018-11-25T20:45:24.891Z,35.00
2018-11-25T20:47:53.781Z,37.87
2018-11-25T20:50:22.397Z,39.17
2018-11-25T20:52:56.206Z,37.47
2018-11-25T20:55:24.718Z,36.37
2018-11-25T20:57:53.272Z,37.20
2018-11-25T21:00:23.088Z,39.30
2018-11-25T21:02:52.911Z,40.53
2018-11-25T21:05:21.500Z,37.33
2018-11-25T21:07:50.406Z,44.93
2018-11-25T21:10:19.914Z,45.07
2018-11-25T21:12:49.983Z,39.20
2018-11-25T21:15:18.614Z,45.07
2018-11-25T21:17:47.160Z,47.27
2018-11-25T21:20:21.044Z,43.27
2018-11-25T21:22:49.669Z,45.53
2018-11-25T21:25:19.243Z,42.20
2018-11-25T21:27:47.927Z,45.23
2018-11-25T21:30:24.109Z,43.13
2018-11-25T21:32:53.934Z,46.83
2018-11-25T21:35:22.542Z,48.47
2018-11-25T21:37:51.094Z,44.53
2018-11-25T21:40:23.633Z,47.50
2018-11-25T21:42:52.729Z,52.83
2018-11-25T21:45:21.924Z,48.80
2018-11-25T21:47:50.777Z,52.67
2018-11-25T21:50:24.617Z,53.27
2018-11-25T21:52:53.315Z,50.57
2018-11-25T21:55:21.943Z,53.47
2018-11-25T21:57:50.594Z,54.20
2018-11-25T22:00:21.327Z,52.10
2018-11-25T22:02:49.889Z,50.00
2018-11-25T22:05:18.666Z,50.73
2018-11-25T22:07:47.267Z,50.50
2018-11-25T22:10:17.412Z,49.63
2018-11-25T22:12:46.379Z,46.47
2018-11-25T22:15:19.170Z,51.93
2018-11-25T22:17:47.826Z,50.63
2018-11-25T22:20:16.855Z,51.00
2018-11-25T22:22:45.503Z,50.50
2018-11-25T22:25:18.204Z,48.93
2018-11-25T22:27:46.911Z,48.87
2018-11-25T22:30:20.290Z,50.43
2018-11-25T22:32:50.105Z,51.03
2018-11-25T22:35:19.891Z,52.40
2018-11-25T22:37:48.484Z,46.00
2018-11-25T22:40:17.886Z,47.53
2018-11-25T22:42:47.371Z,49.67
2018-11-25T22:45:17.795Z,46.80
2018-11-25T22:47:46.418Z,50.83
2018-11-25T22:50:19.868Z,52.03
2018-11-25T22:52:48.672Z,51.83
2018-11-25T22:55:22.094Z,48.20
2018-11-25T22:57:50.684Z,50.07
2018-11-25T23:00:34.930Z,48.93
2018-11-25T23:03:03.796Z,51.70
2018-11-25T23:05:43.505Z,51.87
2018-11-25T23:08:12.267Z,50.00
2018-11-25T23:10:40.908Z,50.73
2018-11-25T23:13:09.605Z,55.60
2018-11-25T23:15:38.208Z,55.00
2018-11-25T23:18:06.780Z,51.43
2018-11-25T23:20:35.427Z,56.13
2018-11-25T23:23:04.199Z,55.87
2018-11-25T23:25:32.777Z,54.60
2018-11-25T23:28:01.456Z,56.43
2018-11-25T23:30:30.016Z,55.87
2018-11-25T23:32:58.614Z,56.83
2018-11-25T23:35:28.425Z,64.53
2018-11-25T23:37:56.978Z,57.87
2018-11-25T23:40:25.574Z,60.10
2018-11-25T23:42:54.116Z,55.63
2018-11-25T23:45:22.713Z,58.10
2018-11-25T23:47:51.293Z,59.30
2018-11-25T23:50:20.129Z,55.40
2018-11-25T23:52:49.319Z,56.77
2018-11-25T23:55:17.929Z,60.80
2018-11-25T23:57:46.514Z,65.07
